岡山グライダークラブ活動状況掲示板

岡山グライダークラブ
岡山市浦安南町639-1 岡南飛行場
 使用機:シャイベ式 SF25C型 ファルケ   JA2330
      ヴァレンティン式17E型 タイフーン  JA2342
 練習日:毎日曜日  クラブルーム:電話 086-265-1810
この掲示板は岡山グライダークラブの活動状況をお知らせする掲示板です。
!!!この掲示板は投稿規制をしています。!!!
クラブ関連各種情報は 岡山グライダークラブクラブルーム      を       .
  ブリーフイング情報は  岡山グライダークラブブリーフィングルーム  をご覧下さい。 .
※写真はクリックすると拡大して見ることが出来ます。
岡南飛行場へのアクセス等は 岡南飛行場管理事務所 をご覧ください。
クラブの ホームページ ができました。

!!!最近のコロナ感染拡大に伴い、当面の間、見学者等の受入を中止しております。再開まで今しばらくお待ちください!!!

 
05月09日
by OGC at 2021/5/9(日) 11:28:01 No.20210509111615  削除コメント
1052 x 790 x 31,893バイト  <この画像は大きいので別画面で表示します>
No.1

05月09日
本日のリモート参加者
  会員      12名
  その他      0名


@本日の様子






METAR
RJBK 090000Z 25012KT 10km FEW015Cu SCT025Cu 22/15 Q1006 A2973
RJOB 090000Z 26012KT 230V310 9999 FEW020 SCT030 21/12 Q1007
RJOT 090000Z 26022G36KT 9999 FEW025 22/13 Q1007
RJOA 090000Z 28011KT 240V320 9999 FEW035 21/11 Q1008
TAF
RJOB 082306Z 0900/1006 26012KT 9999 FEW030
RJOT 082306Z 0900/1006 26013KT 9999 FEW035
      TEMPO 0900/0903 26016G26KT
      BECMG 0912/0915 19005KT
      BECMG 0921/1000 27010KT
RJOA 082306Z 0900/1006 29011KT 9999 FEW030
      BECMG 1000/1003 20005KT


本日、第8回リモートブリーフィングを開催し、周知事項としては、
・関西圏の緊急事態宣言の延長、中四国の感染拡大を受け、訓練活動を5月末まで自粛します。
 休止期間中はオンラインブリーフィングを開催します。
・今年の岡南飛行場祭りの中止が決定。
です。
勉強会では、GNSS(GPS)システムについて講義がありました。

集合 10:00 解散    10:50

本日のフライトはありません。

    << 戻る || ホームページ || 最新の掲示板へ